Flossmoor, Illinois
Current Conditions -  °F | °C
As of 4:35 PM on Tuesday 21 Oct 2014 (Local Time) from KIGQ Reporting Station
Overcast Overcast  
Wind Chill: 46°   Ceiling: 2700
Heat Index: 50°   Visibility: 10mi
Dew Point: 41°   Wind: 9mph
Humidity: 72%   Direction: 20°NNE
Pressure: 30.19"   Gusts: NA
Location:  41.54°N, 87.68°W
Report Text: KIGQ 212135Z AUTO 02008KT 10SM OVC027 10/05 A3019 RMK AO2 T00990050
Loading
Personal Weather Stations






























Interactive Weather Map
Tropical Storm Tracking
New forecast layout! Learn more

10-Day Weather Forecast

Advertisements
Track Severe Weather on mobile